Accueil
METAR-TAF:

METAR-TAF

Aéroports :

Aéroport international Agostinho-Neto

Pointe-Noire, Congo

latitude: 04-49S, longitude: 011-54E, altitude: 17 m

Observation

Le bulletin a été fait il y a 1 heure et 5 minutes, à 17:00 UTC
Vent 9 kt de sud/sud-ouest
Température 25°C
Humidité 79%
Pression 1014 hPa
Visibilité 10 km ou plus
Quelques nuages à une hauteur de 1600 ft
Nuages épars à une hauteur de 2300 ft

METAR: FCPP 191700Z 20009KT 9999 FEW016 SCT023 25/21 Q1014 NOSIG

Heure: 19:05 (18:05 UTC)

Prévision

Le bulletin a été fait il y a 1 heure et 5 minutes, à 17:00 UTC
Prévision valable du 19 à 18 UTC au 20 à 18 UTC
Vent 4 kt de sud
Visibilité: 9000 m
Nuages épars à une hauteur de 1200 ft
Nuages fragmentés à une hauteur de 2300 ft
Probabilité 40%
du 20 à 04 UTC au 20 à 08 UTC
Visibilité: 3000 m
Nuages fragmentés à une hauteur de 800 ft
brume

TAF: FCPP 191700Z 1918/2018 18004KT 9000 SCT012 BKN023 PROB40 2004/2008 3000 BR BKN008

Observations et prévisions météorologiques de plus de 4000 aéroports (messages METAR et TAF).

Les stations disponibles sont représentées par des disques jaunes et rouges sur la carte.

Passer la souris dessus pour voir le nom de la station.

Cliquer dessus pour voir les observations et prévisions météorologiques.

Pour changer de carte: cliquez sur les boutons verts avec une croix noire pour zoomer, sur le bouton vert avec un tiret pour effectuer un zoom arrière, ou sur les flèches vertes pour les cartes adjacentes.


METAR-TAF: